createdAt,value
2023-01-04T00:00:50.575Z,90.80
2023-01-04T00:03:17.455Z,90.60
2023-01-04T00:05:44.244Z,90.50
2023-01-04T00:08:10.971Z,90.40
2023-01-04T00:10:37.700Z,90.40
2023-01-04T00:13:04.613Z,90.40
2023-01-04T00:15:31.420Z,90.50
2023-01-04T00:17:58.169Z,90.60
2023-01-04T00:20:24.911Z,90.70
2023-01-04T00:22:51.652Z,90.70
2023-01-04T00:25:18.523Z,90.90
2023-01-04T00:27:45.595Z,90.60
2023-01-04T00:30:13.045Z,90.50
2023-01-04T00:32:39.794Z,90.60
2023-01-04T00:35:06.816Z,91.00
2023-01-04T00:37:33.573Z,90.80
2023-01-04T00:40:00.301Z,90.70
2023-01-04T00:42:27.016Z,90.70
2023-01-04T00:44:53.826Z,90.70
2023-01-04T00:47:20.890Z,90.40
2023-01-04T00:49:47.627Z,90.40
2023-01-04T00:52:14.341Z,90.60
2023-01-04T00:54:41.060Z,90.70
2023-01-04T00:57:09.000Z,90.60
2023-01-04T00:59:35.728Z,90.40
2023-01-04T01:02:02.721Z,90.40
2023-01-04T01:04:29.642Z,90.50
2023-01-04T01:06:56.650Z,90.40
2023-01-04T01:09:23.946Z,90.40
2023-01-04T01:11:52.309Z,90.90
2023-01-04T01:14:22.184Z,91.00
2023-01-04T01:16:58.168Z,90.90
2023-01-04T01:19:28.632Z,90.80
2023-01-04T01:21:57.021Z,91.10
2023-01-04T01:24:23.913Z,90.50
2023-01-04T01:26:50.676Z,90.40
2023-01-04T01:29:17.395Z,90.60
2023-01-04T01:31:44.169Z,90.60
2023-01-04T01:34:10.915Z,90.60
2023-01-04T01:36:37.642Z,90.50
2023-01-04T01:39:05.524Z,90.50
2023-01-04T01:41:33.455Z,90.60
2023-01-04T01:44:04.767Z,90.50
2023-01-04T01:46:43.329Z,90.80
2023-01-04T01:49:25.455Z,90.80
2023-01-04T01:51:56.143Z,91.20
2023-01-04T01:54:28.699Z,90.90
2023-01-04T01:56:56.440Z,90.60
2023-01-04T01:59:23.560Z,90.40
2023-01-04T02:01:50.362Z,90.40
2023-01-04T02:04:17.294Z,90.50
2023-01-04T02:06:51.203Z,90.50
2023-01-04T02:09:18.433Z,90.50
2023-01-04T02:11:45.192Z,90.70
2023-01-04T02:14:30.223Z,90.60
2023-01-04T02:17:13.189Z,90.60
2023-01-04T02:20:17.437Z,90.70
2023-01-04T02:22:52.979Z,91.20
2023-01-04T02:25:34.741Z,91.30
2023-01-04T02:28:15.814Z,91.30
2023-01-04T02:30:45.586Z,91.40
2023-01-04T02:33:21.335Z,91.30
2023-01-04T02:36:08.322Z,91.20
2023-01-04T02:38:58.089Z,90.60
2023-01-04T02:41:27.335Z,90.60
2023-01-04T02:44:31.926Z,90.70
2023-01-04T02:47:10.090Z,90.70
2023-01-04T02:49:59.217Z,90.70
2023-01-04T02:52:30.938Z,90.70
2023-01-04T02:54:57.666Z,90.80
2023-01-04T02:57:43.587Z,90.60
2023-01-04T03:00:12.651Z,90.80
2023-01-04T03:03:16.493Z,91.60
2023-01-04T03:06:17.393Z,91.50
2023-01-04T03:08:54.492Z,91.60
2023-01-04T03:11:39.842Z,91.20
2023-01-04T03:14:31.322Z,91.00
2023-01-04T03:16:59.493Z,90.90
2023-01-04T03:19:44.618Z,90.90
2023-01-04T03:22:32.428Z,90.90
2023-01-04T03:25:18.156Z,91.00
2023-01-04T03:28:03.233Z,91.10
2023-01-04T03:30:48.514Z,91.00
2023-01-04T03:33:33.604Z,91.00
2023-01-04T03:36:20.905Z,91.10
2023-01-04T03:39:29.647Z,91.20
2023-01-04T03:42:23.079Z,91.30
2023-01-04T03:45:32.062Z,91.20
2023-01-04T03:48:33.471Z,91.10
2023-01-04T03:51:09.467Z,91.10
2023-01-04T03:53:40.187Z,90.90
2023-01-04T03:56:08.286Z,90.70
2023-01-04T03:58:35.040Z,90.80
2023-01-04T04:01:03.583Z,90.80
2023-01-04T04:03:50.152Z,90.70
2023-01-04T04:06:35.724Z,90.60
2023-01-04T04:09:02.777Z,90.70
2023-01-04T04:11:32.643Z,90.60
2023-01-04T04:13:59.678Z,90.80
2023-01-04T04:16:26.644Z,91.20
2023-01-04T04:18:53.423Z,90.90
2023-01-04T04:21:20.178Z,90.80
2023-01-04T04:23:46.949Z,91.00
2023-01-04T04:26:13.785Z,90.90
2023-01-04T04:28:40.615Z,90.50
2023-01-04T04:31:07.608Z,90.40
2023-01-04T04:33:34.371Z,90.40
2023-01-04T04:36:01.092Z,90.40
2023-01-04T04:38:28.211Z,90.80
2023-01-04T04:41:14.560Z,90.40
2023-01-04T04:43:41.318Z,90.40
2023-01-04T04:46:08.147Z,90.40
2023-01-04T04:48:35.004Z,90.40
2023-01-04T04:51:01.759Z,90.40
2023-01-04T04:53:28.529Z,90.40
2023-01-04T04:55:55.262Z,90.40
2023-01-04T04:58:22.090Z,90.60
2023-01-04T05:00:48.866Z,90.40
2023-01-04T05:03:15.785Z,90.40
2023-01-04T05:05:42.646Z,90.30
2023-01-04T05:08:09.398Z,90.30
2023-01-04T05:10:37.662Z,90.30
2023-01-04T05:13:06.371Z,90.30
2023-01-04T05:15:37.743Z,90.30
2023-01-04T05:18:05.399Z,90.20
2023-01-04T05:20:32.221Z,90.20
2023-01-04T05:22:58.982Z,90.20
2023-01-04T05:25:25.772Z,90.20
2023-01-04T05:27:52.530Z,90.10
2023-01-04T05:30:38.349Z,90.30
2023-01-04T05:33:05.606Z,90.40
2023-01-04T05:35:32.433Z,90.40
2023-01-04T05:37:59.200Z,90.50
2023-01-04T05:40:26.311Z,90.40
2023-01-04T05:42:53.131Z,90.30
2023-01-04T05:45:21.114Z,90.70
2023-01-04T05:47:51.797Z,90.30
2023-01-04T05:50:19.643Z,90.30
2023-01-04T05:52:46.564Z,90.10
2023-01-04T05:55:13.507Z,90.40
2023-01-04T05:57:40.251Z,90.20
2023-01-04T06:00:09.466Z,90.20
2023-01-04T06:02:36.963Z,90.20
2023-01-04T06:05:04.295Z,90.20
2023-01-04T06:07:31.059Z,90.20
2023-01-04T06:09:57.851Z,90.40
2023-01-04T06:12:24.977Z,90.50
2023-01-04T06:14:51.719Z,90.30
2023-01-04T06:17:18.529Z,90.40
2023-01-04T06:19:45.346Z,90.20
2023-01-04T06:22:12.208Z,90.00
2023-01-04T06:24:39.251Z,90.30
2023-01-04T06:27:06.016Z,90.10
2023-01-04T06:29:32.769Z,90.10
2023-01-04T06:31:59.573Z,90.10
2023-01-04T06:34:30.861Z,90.10
2023-01-04T06:36:58.349Z,90.00
2023-01-04T06:39:25.098Z,90.00
2023-01-04T06:41:51.848Z,90.20
2023-01-04T06:44:18.590Z,89.60
2023-01-04T06:46:45.408Z,90.00
2023-01-04T06:49:12.127Z,90.10
2023-01-04T06:51:38.874Z,90.00
2023-01-04T06:54:05.842Z,90.00
2023-01-04T06:56:33.582Z,90.00
2023-01-04T06:59:00.350Z,89.90
2023-01-04T07:01:27.156Z,89.80
2023-01-04T07:03:54.194Z,89.70
2023-01-04T07:06:21.132Z,89.50
2023-01-04T07:08:47.835Z,89.50
2023-01-04T07:11:14.547Z,89.60
2023-01-04T07:13:41.393Z,90.10
2023-01-04T07:16:08.343Z,89.40
2023-01-04T07:18:35.121Z,89.60
2023-01-04T07:21:02.087Z,89.50
2023-01-04T07:23:28.875Z,90.10
2023-01-04T07:25:55.666Z,89.80
2023-01-04T07:28:41.066Z,90.00
2023-01-04T07:31:08.216Z,89.90
2023-01-04T07:33:35.105Z,90.00
2023-01-04T07:36:03.543Z,89.90
2023-01-04T07:38:30.312Z,89.60
2023-01-04T07:40:57.326Z,90.00
2023-01-04T07:43:27.872Z,90.30
2023-01-04T07:45:55.525Z,90.20
2023-01-04T07:48:22.608Z,90.10
2023-01-04T07:50:50.165Z,90.10
2023-01-04T07:53:17.047Z,90.00
2023-01-04T07:55:44.206Z,90.00
2023-01-04T07:58:12.330Z,90.00
2023-01-04T08:00:39.279Z,90.00
2023-01-04T08:03:06.288Z,89.90
2023-01-04T08:05:33.975Z,89.80
2023-01-04T08:08:01.091Z,90.00
2023-01-04T08:10:27.854Z,90.00
2023-01-04T08:12:54.877Z,90.00
2023-01-04T08:15:21.608Z,90.10
2023-01-04T08:17:48.334Z,90.30
2023-01-04T08:20:15.234Z,90.20
2023-01-04T08:22:43.405Z,90.10
2023-01-04T08:25:10.996Z,90.10
2023-01-04T08:27:38.047Z,90.10
2023-01-04T08:30:05.209Z,90.20
2023-01-04T08:32:31.946Z,90.20
2023-01-04T08:34:58.673Z,90.10
2023-01-04T08:37:25.424Z,90.10
2023-01-04T08:39:52.221Z,90.20
2023-01-04T08:42:25.213Z,90.20
2023-01-04T08:44:59.970Z,90.20
2023-01-04T08:47:28.057Z,90.60
2023-01-04T08:49:54.980Z,90.30
2023-01-04T08:52:21.769Z,90.20
2023-01-04T08:54:49.246Z,90.10
2023-01-04T08:57:16.824Z,90.30
2023-01-04T08:59:43.579Z,90.20
2023-01-04T09:02:24.293Z,90.30
2023-01-04T09:04:51.393Z,90.30
2023-01-04T09:07:18.263Z,90.30
2023-01-04T09:09:45.090Z,90.20
2023-01-04T09:12:12.509Z,90.90
2023-01-04T09:14:39.377Z,90.70
2023-01-04T09:17:06.125Z,90.80
2023-01-04T09:19:32.948Z,90.80
2023-01-04T09:21:59.759Z,90.60
2023-01-04T09:24:26.611Z,90.70
2023-01-04T09:26:53.435Z,90.80
2023-01-04T09:29:20.273Z,91.00
2023-01-04T09:31:47.195Z,90.50
2023-01-04T09:34:17.359Z,90.80
2023-01-04T09:36:46.084Z,90.10
2023-01-04T09:39:21.724Z,90.00
2023-01-04T09:42:00.325Z,90.20
2023-01-04T09:47:29.687Z,89.60
2023-01-04T09:50:22.335Z,90.00
2023-01-04T09:53:04.535Z,89.60
2023-01-04T09:55:40.767Z,89.30
2023-01-04T09:58:15.386Z,88.80
2023-01-04T10:00:45.698Z,88.50
2023-01-04T10:03:25.026Z,88.40
2023-01-04T10:05:53.152Z,88.20
2023-01-04T10:08:20.307Z,88.00
2023-01-04T10:11:27.741Z,88.10
2023-01-04T10:14:15.625Z,87.60
2023-01-04T10:17:12.911Z,87.90
2023-01-04T10:23:00.313Z,87.60
2023-01-04T10:25:31.454Z,87.80
2023-01-04T10:28:16.382Z,89.10
2023-01-04T10:31:39.546Z,89.20
2023-01-04T10:34:22.702Z,89.20
2023-01-04T10:36:49.958Z,88.40
2023-01-04T10:39:18.593Z,89.40
2023-01-04T10:41:55.551Z,89.30
2023-01-04T10:44:37.558Z,88.60
2023-01-04T10:47:16.400Z,88.90
2023-01-04T10:49:45.434Z,88.60
2023-01-04T10:52:26.904Z,88.20
2023-01-04T10:55:40.890Z,88.20
2023-01-04T10:58:35.614Z,88.10
2023-01-04T11:01:09.126Z,88.00
2023-01-04T11:03:41.242Z,88.00
2023-01-04T11:06:11.365Z,88.10
2023-01-04T11:08:50.798Z,87.90
2023-01-04T11:11:30.405Z,88.20
2023-01-04T11:13:57.202Z,88.30
2023-01-04T11:16:24.051Z,88.40
2023-01-04T11:18:50.894Z,88.70
2023-01-04T11:21:19.945Z,88.10
2023-01-04T11:23:46.651Z,87.20
2023-01-04T11:26:22.355Z,87.10
2023-01-04T11:29:00.468Z,87.10
2023-01-04T11:31:45.304Z,87.20
2023-01-04T11:34:12.150Z,87.00
2023-01-04T11:36:45.169Z,87.10
2023-01-04T11:39:22.904Z,86.90
2023-01-04T11:42:04.534Z,86.80
2023-01-04T11:44:32.390Z,86.60
2023-01-04T11:47:23.402Z,86.60
2023-01-04T11:49:52.304Z,86.40
2023-01-04T11:52:36.013Z,86.40
2023-01-04T11:55:38.152Z,86.00
2023-01-04T11:58:12.159Z,86.00
2023-01-04T12:00:39.719Z,83.90
2023-01-04T12:03:16.703Z,86.50
2023-01-04T12:05:45.135Z,85.70
2023-01-04T12:08:32.317Z,85.90
2023-01-04T12:11:04.174Z,83.70
2023-01-04T12:13:32.635Z,83.70
2023-01-04T12:16:18.590Z,83.60
2023-01-04T12:18:45.859Z,83.30
2023-01-04T12:21:26.346Z,82.70
2023-01-04T12:23:54.042Z,82.50
2023-01-04T12:26:20.999Z,82.40
2023-01-04T12:29:09.104Z,82.70
2023-01-04T12:31:35.816Z,82.80
2023-01-04T12:34:21.472Z,83.60
2023-01-04T12:36:51.303Z,82.40
2023-01-04T12:39:22.619Z,82.20
2023-01-04T12:42:01.238Z,82.00
2023-01-04T12:44:37.448Z,81.70
2023-01-04T12:47:23.933Z,81.20
2023-01-04T12:50:00.714Z,82.30
2023-01-04T12:52:38.385Z,81.50
2023-01-04T12:55:31.162Z,81.70
2023-01-04T12:58:29.151Z,81.30
2023-01-04T13:01:09.073Z,81.20
2023-01-04T13:03:36.381Z,81.20
2023-01-04T13:06:04.677Z,81.30
2023-01-04T13:08:35.234Z,81.10
2023-01-04T13:11:02.159Z,80.80
2023-01-04T13:13:56.952Z,80.70
2023-01-04T13:16:46.060Z,80.70
2023-01-04T13:19:20.453Z,80.50
2023-01-04T13:21:47.604Z,80.70
2023-01-04T13:24:34.395Z,81.30
2023-01-04T13:27:08.144Z,81.80
2023-01-04T13:29:35.591Z,82.20
2023-01-04T13:32:28.516Z,82.00
2023-01-04T13:35:01.815Z,82.00
2023-01-04T13:37:32.974Z,82.10
2023-01-04T13:40:21.938Z,81.80
2023-01-04T13:43:02.347Z,82.00
2023-01-04T13:46:20.030Z,82.20
2023-01-04T13:48:47.992Z,81.40
2023-01-04T13:51:30.635Z,81.30
2023-01-04T13:54:04.430Z,80.90
2023-01-04T13:56:32.548Z,81.00
2023-01-04T13:58:59.564Z,80.70
2023-01-04T14:01:33.667Z,80.10
2023-01-04T14:04:07.750Z,79.50
2023-01-04T14:06:35.354Z,79.70
2023-01-04T14:09:07.915Z,79.80
2023-01-04T14:12:08.061Z,80.00
2023-01-04T14:14:53.828Z,81.60
2023-01-04T14:17:36.362Z,85.60
2023-01-04T14:20:13.021Z,82.60
2023-01-04T14:22:39.932Z,82.70
2023-01-04T14:25:35.710Z,82.20
2023-01-04T14:28:30.436Z,82.30
2023-01-04T14:31:00.218Z,83.80
2023-01-04T14:33:36.293Z,84.40
2023-01-04T14:36:19.444Z,83.00
2023-01-04T14:38:49.136Z,83.30
2023-01-04T14:41:26.026Z,82.40
2023-01-04T14:44:02.579Z,81.70
2023-01-04T14:46:30.382Z,81.70
2023-01-04T14:48:57.187Z,81.00
2023-01-04T14:51:46.173Z,81.30
2023-01-04T14:54:18.860Z,81.40
2023-01-04T14:56:49.076Z,80.70
2023-01-04T14:59:16.670Z,80.80
2023-01-04T15:01:45.512Z,81.90
2023-01-04T15:04:12.611Z,81.20
2023-01-04T15:06:47.771Z,80.90
2023-01-04T15:09:16.884Z,80.90
2023-01-04T15:11:45.179Z,80.40
2023-01-04T15:14:12.306Z,80.20
2023-01-04T15:16:39.152Z,80.00
2023-01-04T15:19:05.984Z,80.00
2023-01-04T15:21:36.917Z,79.40
2023-01-04T15:24:07.802Z,78.60
2023-01-04T15:26:34.672Z,78.80
2023-01-04T15:29:02.465Z,78.60
2023-01-04T15:31:38.631Z,78.80
2023-01-04T15:34:16.615Z,78.90
2023-01-04T15:36:45.509Z,79.00
2023-01-04T15:39:16.159Z,80.30
2023-01-04T15:42:02.070Z,81.00
2023-01-04T15:44:28.802Z,80.60
2023-01-04T15:46:55.663Z,79.50
2023-01-04T15:49:22.452Z,79.50
2023-01-04T15:51:49.194Z,79.30
2023-01-04T15:54:17.508Z,79.00
2023-01-04T15:56:44.916Z,79.10
2023-01-04T15:59:15.082Z,78.80
2023-01-04T16:01:43.230Z,78.50
2023-01-04T16:04:14.704Z,79.30
2023-01-04T16:06:41.753Z,77.80
2023-01-04T16:09:09.037Z,78.00
2023-01-04T16:11:35.803Z,77.60
2023-01-04T16:14:02.785Z,77.20
2023-01-04T16:16:29.715Z,77.00
2023-01-04T16:18:56.967Z,76.20
2023-01-04T16:21:25.194Z,75.90
2023-01-04T16:24:03.811Z,76.10
2023-01-04T16:26:33.828Z,76.00
2023-01-04T16:29:00.899Z,76.00
2023-01-04T16:31:32.004Z,75.60
2023-01-04T16:33:58.757Z,75.80
2023-01-04T16:36:25.491Z,75.80
2023-01-04T16:38:52.298Z,76.50
2023-01-04T16:41:21.237Z,76.20
2023-01-04T16:43:49.456Z,76.60
2023-01-04T16:46:25.539Z,75.50
2023-01-04T16:48:56.644Z,75.60
2023-01-04T16:51:23.975Z,75.90
2023-01-04T16:53:51.111Z,75.90
2023-01-04T16:56:19.009Z,75.90
2023-01-04T16:58:48.434Z,76.20
2023-01-04T17:01:17.194Z,76.30
2023-01-04T17:03:48.748Z,76.50
2023-01-04T17:06:20.764Z,76.90
2023-01-04T17:08:49.523Z,78.20
2023-01-04T17:12:11.394Z,77.60
2023-01-04T17:14:08.566Z,77.10
2023-01-04T17:16:35.538Z,76.60
2023-01-04T17:19:02.477Z,78.10
2023-01-04T17:21:34.589Z,77.90
2023-01-04T17:24:01.660Z,77.30
2023-01-04T17:26:30.401Z,78.40
2023-01-04T17:28:57.921Z,79.00
2023-01-04T17:31:28.408Z,81.30
2023-01-04T17:33:55.163Z,80.00
2023-01-04T17:36:22.113Z,81.30
2023-01-04T17:38:49.111Z,84.40
2023-01-04T17:41:17.738Z,80.30
2023-01-04T17:43:46.739Z,79.30
2023-01-04T17:46:22.808Z,80.10
2023-01-04T17:48:58.939Z,80.20
2023-01-04T17:51:37.695Z,79.10
2023-01-04T17:54:04.898Z,78.70
2023-01-04T17:56:33.398Z,78.00
2023-01-04T17:59:01.708Z,78.40
2023-01-04T18:01:28.854Z,78.30
2023-01-04T18:03:57.291Z,79.40
2023-01-04T18:06:27.480Z,79.10
2023-01-04T18:08:57.798Z,78.60
2023-01-04T18:11:24.768Z,78.50
2023-01-04T18:13:52.548Z,77.90
2023-01-04T18:16:24.690Z,77.80
2023-01-04T18:18:55.274Z,77.60
2023-01-04T18:21:29.862Z,77.80
2023-01-04T18:27:19.880Z,77.60
2023-01-04T18:29:33.971Z,77.50
2023-01-04T18:32:01.025Z,78.60
2023-01-04T18:34:28.133Z,78.90
2023-01-04T18:36:55.645Z,78.80
2023-01-04T18:39:22.735Z,78.90
2023-01-04T18:41:58.242Z,78.60
2023-01-04T18:44:34.330Z,78.60
2023-01-04T18:47:01.954Z,78.30
2023-01-04T18:49:29.038Z,78.70
2023-01-04T18:51:55.846Z,81.20
2023-01-04T18:54:22.903Z,82.50
2023-01-04T18:56:51.285Z,80.50
2023-01-04T18:59:20.054Z,81.00
2023-01-04T19:01:48.044Z,80.50
2023-01-04T19:04:17.519Z,79.90
2023-01-04T19:06:46.017Z,80.10
2023-01-04T19:09:13.082Z,79.80
2023-01-04T19:11:40.460Z,79.80
2023-01-04T19:14:07.536Z,79.80
2023-01-04T19:16:34.549Z,82.70
2023-01-04T19:19:01.798Z,83.90
2023-01-04T19:21:29.085Z,85.10
2023-01-04T19:23:56.278Z,83.00
2023-01-04T19:26:23.502Z,83.50
2023-01-04T19:28:50.852Z,83.30
2023-01-04T19:31:19.463Z,82.40
2023-01-04T19:33:48.198Z,82.90
2023-01-04T19:36:18.003Z,85.60
2023-01-04T19:38:46.061Z,86.60
2023-01-04T19:41:20.982Z,87.50
2023-01-04T19:43:48.871Z,88.00
2023-01-04T19:46:16.865Z,90.90
2023-01-04T19:48:44.100Z,90.50
2023-01-04T19:51:12.767Z,87.00
2023-01-04T19:53:39.979Z,87.60
2023-01-04T19:56:07.655Z,87.20
2023-01-04T19:58:34.387Z,87.10
2023-01-04T20:01:01.187Z,86.90
2023-01-04T20:03:28.053Z,87.10
2023-01-04T20:05:55.353Z,87.20
2023-01-04T20:08:22.318Z,86.70
2023-01-04T20:10:55.665Z,85.90
2023-01-04T20:13:22.477Z,85.80
2023-01-04T20:15:49.255Z,86.00
2023-01-04T20:18:17.423Z,86.80
2023-01-04T20:20:44.765Z,87.60
2023-01-04T20:23:11.977Z,87.20
2023-01-04T20:25:43.129Z,87.20
2023-01-04T20:28:09.897Z,86.30
2023-01-04T20:30:36.787Z,86.60
2023-01-04T20:33:03.750Z,85.60
2023-01-04T20:35:31.418Z,85.60
2023-01-04T20:37:58.246Z,86.00
2023-01-04T20:40:25.650Z,86.40
2023-01-04T20:43:10.841Z,88.70
2023-01-04T20:45:48.557Z,88.70
2023-01-04T20:48:16.931Z,88.60
2023-01-04T20:50:43.763Z,88.40
2023-01-04T20:53:11.471Z,87.80
2023-01-04T20:55:42.400Z,88.60
2023-01-04T20:58:09.693Z,87.70
2023-01-04T21:00:39.555Z,88.20
2023-01-04T21:03:07.274Z,87.50
2023-01-04T21:05:37.975Z,88.00
2023-01-04T21:08:05.157Z,87.60
2023-01-04T21:10:32.049Z,87.40
2023-01-04T21:12:58.803Z,86.80
2023-01-04T21:15:25.591Z,87.20
2023-01-04T21:17:52.400Z,86.90
2023-01-04T21:20:21.544Z,86.80
2023-01-04T21:22:49.443Z,86.90
2023-01-04T21:25:16.249Z,86.50
2023-01-04T21:27:43.021Z,86.70
2023-01-04T21:30:10.260Z,86.50
2023-01-04T21:32:36.985Z,86.20
2023-01-04T21:35:03.964Z,86.20
2023-01-04T21:37:30.712Z,86.00
2023-01-04T21:39:57.432Z,85.90
2023-01-04T21:42:24.142Z,85.80
2023-01-04T21:44:50.880Z,85.40
2023-01-04T21:47:17.839Z,85.40
2023-01-04T21:49:45.822Z,85.70
2023-01-04T21:52:12.640Z,86.00
2023-01-04T21:54:39.385Z,86.40
2023-01-04T21:57:08.097Z,86.70
2023-01-04T21:59:35.695Z,86.70
2023-01-04T22:02:02.833Z,86.80
2023-01-04T22:04:30.040Z,86.80
2023-01-04T22:06:57.228Z,86.50
2023-01-04T22:09:24.379Z,87.10
2023-01-04T22:11:52.136Z,86.90
2023-01-04T22:14:20.155Z,87.10
2023-01-04T22:16:47.259Z,87.40
2023-01-04T22:19:14.608Z,87.60
2023-01-04T22:21:42.045Z,87.80
2023-01-04T22:24:12.609Z,88.00
2023-01-04T22:26:40.337Z,89.20
2023-01-04T22:29:07.426Z,88.30
2023-01-04T22:31:34.550Z,88.70
2023-01-04T22:34:01.547Z,88.80
2023-01-04T22:36:28.316Z,89.00
2023-01-04T22:38:55.813Z,88.80
2023-01-04T22:41:24.067Z,89.00
2023-01-04T22:43:57.696Z,89.00
2023-01-04T22:46:24.732Z,89.20
2023-01-04T22:48:51.596Z,90.00
2023-01-04T22:51:18.581Z,89.00
2023-01-04T22:53:45.348Z,88.70
2023-01-04T22:56:22.415Z,88.60
2023-01-04T22:58:53.484Z,88.70
2023-01-04T23:01:23.350Z,88.70
2023-01-04T23:03:52.441Z,88.80
2023-01-04T23:06:19.359Z,89.00
2023-01-04T23:08:46.094Z,89.30
2023-01-04T23:11:15.295Z,89.50
2023-01-04T23:13:42.240Z,90.20
2023-01-04T23:16:11.170Z,89.80
2023-01-04T23:18:37.973Z,89.90
2023-01-04T23:21:05.189Z,90.00
2023-01-04T23:23:32.053Z,90.00
2023-01-04T23:26:06.702Z,90.00
2023-01-04T23:28:36.118Z,90.00
2023-01-04T23:31:07.159Z,90.00
2023-01-04T23:33:36.440Z,90.10
2023-01-04T23:36:13.954Z,90.10
2023-01-04T23:38:41.034Z,90.00
2023-01-04T23:41:07.852Z,89.80
2023-01-04T23:43:34.949Z,89.60
2023-01-04T23:46:12.293Z,89.60
2023-01-04T23:48:39.232Z,89.50
2023-01-04T23:51:06.033Z,89.50
2023-01-04T23:53:32.772Z,89.60
2023-01-04T23:56:04.244Z,89.90
2023-01-04T23:58:31.519Z,90.20
